Time;durP1;ratioP1;P1;durP2;ratioP2;P2;SDS_P1;SDS_P2;PMS_P1;PMS_P2;Temp;Humidity;BMP_temperature;BMP_pressure;BME280_temperature;BME280_humidity;BME280_pressure;Samples;Min_cycle;Max_cycle;Signal;HPM_P1;HPM_P2
2023/12/29 00:00:28;;;;;;;8.40;2.20;;;18.70;51.70;;;;;;5094343;28;20245;-62
2023/12/29 00:02:56;;;;;;;11.95;2.70;;;18.70;51.70;;;;;;5093971;28;20281;-62
2023/12/29 00:05:23;;;;;;;9.90;2.42;;;18.70;51.70;;;;;;5094047;28;20297;-62
2023/12/29 00:07:50;;;;;;;8.18;2.25;;;18.60;51.70;;;;;;5094286;28;20281;-62
2023/12/29 00:10:17;;;;;;;10.52;2.92;;;18.70;51.70;;;;;;5093941;28;20300;-60
2023/12/29 00:12:44;;;;;;;11.18;2.83;;;18.70;51.80;;;;;;5094251;28;20640;-62
2023/12/29 00:15:11;;;;;;;10.93;2.72;;;18.70;51.80;;;;;;5094247;28;20217;-62
2023/12/29 00:17:40;;;;;;;10.73;2.67;;;18.60;51.70;;;;;;5093605;28;20749;-61
2023/12/29 00:20:09;;;;;;;8.43;2.72;;;18.70;51.90;;;;;;5093820;28;20214;-62
2023/12/29 00:22:36;;;;;;;10.07;2.80;;;18.60;51.80;;;;;;5093755;28;20277;-61
2023/12/29 00:25:04;;;;;;;9.57;2.88;;;18.60;51.80;;;;;;5093459;28;20655;-63
2023/12/29 00:27:30;;;;;;;11.65;2.90;;;18.60;51.90;;;;;;5093919;28;20633;-62
2023/12/29 00:29:57;;;;;;;8.95;2.58;;;18.60;51.90;;;;;;5093870;28;20190;-62
2023/12/29 00:32:24;;;;;;;11.98;2.70;;;18.60;51.90;;;;;;5093447;28;20226;-62
2023/12/29 00:34:51;;;;;;;8.05;2.22;;;18.60;52.00;;;;;;5094094;28;20267;-62
2023/12/29 00:37:19;;;;;;;8.45;2.08;;;18.60;52.00;;;;;;5093772;28;20190;-62
2023/12/29 00:39:46;;;;;;;9.77;2.45;;;18.60;52.00;;;;;;5093171;28;20281;-62
2023/12/29 00:42:13;;;;;;;8.98;2.75;;;18.50;52.00;;;;;;5093378;28;20731;-62
2023/12/29 00:44:40;;;;;;;12.57;2.60;;;18.60;52.00;;;;;;5093410;28;20644;-62
2023/12/29 00:47:07;;;;;;;11.50;3.00;;;18.60;52.00;;;;;;5092948;28;20324;-62
2023/12/29 00:49:34;;;;;;;7.00;2.00;;;18.60;52.00;;;;;;5093626;28;20194;-62
2023/12/29 00:52:02;;;;;;;16.75;3.20;;;18.60;52.10;;;;;;5092576;28;20407;-62
2023/12/29 00:54:30;;;;;;;9.32;2.33;;;18.50;52.00;;;;;;5093237;28;20232;-61
2023/12/29 00:56:57;;;;;;;9.93;3.00;;;18.50;52.00;;;;;;5093460;28;20297;-62
2023/12/29 00:59:24;;;;;;;9.63;2.22;;;18.50;52.00;;;;;;5093313;28;20285;-62
2023/12/29 01:01:51;;;;;;;10.90;2.90;;;18.50;52.00;;;;;;5093365;28;20214;-62
2023/12/29 01:04:18;;;;;;;13.98;3.30;;;18.50;52.00;;;;;;5093279;28;20276;-62
2023/12/29 01:06:45;;;;;;;9.38;2.70;;;18.50;52.10;;;;;;5093238;28;20326;-62
2023/12/29 01:09:12;;;;;;;13.13;2.65;;;18.50;52.10;;;;;;5092901;28;20269;-62
2023/12/29 01:11:40;;;;;;;10.50;2.30;;;18.50;52.20;;;;;;5092740;28;20218;-62
2023/12/29 01:14:07;;;;;;;12.15;2.63;;;18.50;52.20;;;;;;5093135;28;20337;-63
2023/12/29 01:16:33;;;;;;;11.77;2.22;;;18.50;52.20;;;;;;5092795;28;20655;-62
2023/12/29 01:19:00;;;;;;;8.63;2.60;;;18.50;52.20;;;;;;5092998;28;20662;-62
2023/12/29 01:21:27;;;;;;;9.18;2.60;;;18.50;52.20;;;;;;5093078;28;20220;-61
2023/12/29 01:23:54;;;;;;;11.10;2.50;;;18.50;52.20;;;;;;5092399;28;20211;-62
2023/12/29 01:26:21;;;;;;;8.10;2.13;;;18.50;52.30;;;;;;5093195;28;20300;-62
2023/12/29 01:28:49;;;;;;;9.55;2.33;;;18.50;52.20;;;;;;5092814;28;20269;-62
2023/12/29 01:31:16;;;;;;;10.32;2.40;;;18.50;52.30;;;;;;5092476;28;20394;-62
2023/12/29 01:33:43;;;;;;;9.02;2.30;;;18.50;52.30;;;;;;5092360;28;20802;-62
2023/12/29 01:36:10;;;;;;;9.88;2.53;;;18.50;52.40;;;;;;5092734;28;20305;-62
2023/12/29 01:38:36;;;;;;;11.05;2.42;;;18.50;52.30;;;;;;5092400;28;20285;-62
2023/12/29 01:41:03;;;;;;;8.10;2.30;;;18.50;52.30;;;;;;5092663;28;20217;-60
2023/12/29 01:43:30;;;;;;;8.07;2.00;;;18.50;52.40;;;;;;5092494;28;20269;-63
2023/12/29 01:45:59;;;;;;;12.70;2.35;;;18.50;52.40;;;;;;5092393;28;20304;-62
2023/12/29 01:48:26;;;;;;;15.02;2.72;;;18.50;52.40;;;;;;5092243;28;20313;-62
2023/12/29 01:50:54;;;;;;;7.05;2.20;;;18.50;52.50;;;;;;5092493;28;20249;-62
2023/12/29 01:53:22;;;;;;;10.95;2.35;;;18.50;52.50;;;;;;5092048;28;20301;-62
2023/12/29 01:55:49;;;;;;;10.07;2.47;;;18.50;52.50;;;;;;5092575;28;20305;-62
2023/12/29 01:58:16;;;;;;;9.40;2.58;;;18.40;52.50;;;;;;5092433;28;20268;-62
2023/12/29 02:00:44;;;;;;;11.02;2.45;;;18.40;52.50;;;;;;5091795;28;20224;-62
2023/12/29 02:03:12;;;;;;;9.43;2.67;;;18.40;52.50;;;;;;5092137;28;20186;-62
2023/12/29 02:05:40;;;;;;;8.65;2.08;;;18.50;52.60;;;;;;5092385;28;20306;-62
2023/12/29 02:08:09;;;;;;;10.52;2.22;;;18.50;52.60;;;;;;5092070;28;20186;-62
2023/12/29 02:10:36;;;;;;;7.63;2.38;;;18.40;52.60;;;;;;5092339;28;20218;-62
2023/12/29 02:13:03;;;;;;;7.50;2.40;;;18.40;52.60;;;;;;5092421;28;20324;-62
2023/12/29 02:15:31;;;;;;;8.18;2.25;;;18.40;52.60;;;;;;5091583;28;20220;-61
2023/12/29 02:18:02;;;;;;;10.38;2.80;;;18.40;52.60;;;;;;5092248;28;20265;-61
2023/12/29 02:20:31;;;;;;;8.80;2.50;;;18.40;52.70;;;;;;5091896;28;20301;-62
2023/12/29 02:22:57;;;;;;;8.95;2.40;;;18.40;52.70;;;;;;5091969;28;20280;-62
2023/12/29 02:25:26;;;;;;;7.45;2.10;;;18.40;52.70;;;;;;5092196;28;20296;-62
2023/12/29 02:27:58;;;;;;;7.85;2.40;;;18.40;52.70;;;;;;5092176;28;20281;-62
2023/12/29 02:30:31;;;;;;;11.27;2.65;;;18.40;52.70;;;;;;5091805;28;20297;-62
2023/12/29 02:33:02;;;;;;;9.77;2.38;;;18.40;52.70;;;;;;5091720;28;20214;-62
2023/12/29 02:35:32;;;;;;;6.57;2.47;;;18.40;52.70;;;;;;5092150;28;20218;-62
2023/12/29 02:38:00;;;;;;;9.40;2.28;;;18.40;52.80;;;;;;5091683;28;20217;-61
2023/12/29 02:40:28;;;;;;;9.10;2.20;;;18.40;52.80;;;;;;5091978;28;20301;-62
2023/12/29 02:42:55;;;;;;;8.85;2.42;;;18.40;53.50;;;;;;5091969;28;20281;-62
2023/12/29 02:45:22;;;;;;;8.57;2.40;;;18.40;52.80;;;;;;5091770;28;20308;-62
2023/12/29 02:47:50;;;;;;;9.30;2.05;;;18.40;52.90;;;;;;5091671;28;20325;-62
2023/12/29 02:50:17;;;;;;;8.20;2.45;;;18.40;52.90;;;;;;5091716;28;20747;-62
2023/12/29 02:52:44;;;;;;;8.95;2.08;;;18.40;52.90;;;;;;5091577;28;20249;-61
2023/12/29 02:55:11;;;;;;;11.18;2.42;;;18.40;52.90;;;;;;5091597;28;20190;-62
2023/12/29 02:57:39;;;;;;;10.85;2.58;;;18.40;52.90;;;;;;5091639;28;20543;-62
2023/12/29 03:00:07;;;;;;;10.98;2.22;;;18.40;52.90;;;;;;5091426;28;20273;-62
2023/12/29 03:02:34;;;;;;;9.85;2.38;;;18.40;53.00;;;;;;5091875;28;20286;-62
2023/12/29 03:05:01;;;;;;;12.00;2.92;;;18.40;52.90;;;;;;5091543;28;20193;-62
2023/12/29 03:07:28;;;;;;;10.73;2.80;;;18.40;53.00;;;;;;5091216;28;20244;-62
2023/12/29 03:09:55;;;;;;;9.63;2.63;;;18.30;52.90;;;;;;5091646;28;20277;-62
2023/12/29 03:12:22;;;;;;;10.40;2.83;;;18.40;53.10;;;;;;5091816;28;20332;-62
2023/12/29 03:14:50;;;;;;;8.30;2.13;;;18.40;53.00;;;;;;5092234;28;20582;-62
2023/12/29 03:17:17;;;;;;;7.78;2.63;;;18.40;53.00;;;;;;5095209;28;20719;-62
2023/12/29 03:19:44;;;;;;;6.32;2.03;;;18.30;53.00;;;;;;5095150;28;20217;-60
2023/12/29 03:22:11;;;;;;;9.18;2.45;;;18.30;53.00;;;;;;5094941;28;20653;-62
2023/12/29 03:24:41;;;;;;;8.63;2.70;;;18.30;53.00;;;;;;5095245;28;20213;-62
2023/12/29 03:27:08;;;;;;;10.93;2.72;;;18.30;53.10;;;;;;5095207;28;20304;-62
2023/12/29 03:29:34;;;;;;;8.57;2.30;;;18.30;53.10;;;;;;5094468;28;20187;-62
2023/12/29 03:32:03;;;;;;;8.90;2.33;;;18.30;53.20;;;;;;5095319;28;20217;-62
2023/12/29 03:34:29;;;;;;;15.25;2.83;;;18.30;53.10;;;;;;5095048;28;20305;-62
2023/12/29 03:36:56;;;;;;;8.52;2.35;;;18.30;53.20;;;;;;5094681;28;20206;-62
2023/12/29 03:39:24;;;;;;;7.05;2.20;;;18.30;53.10;;;;;;5094958;28;20274;-62
2023/12/29 03:41:50;;;;;;;7.82;2.28;;;18.30;53.20;;;;;;5094935;28;20240;-62
2023/12/29 03:44:17;;;;;;;6.55;1.95;;;18.30;53.20;;;;;;5094379;28;20277;-62
2023/12/29 03:46:45;;;;;;;8.45;2.10;;;18.30;53.20;;;;;;5094453;28;20322;-62
2023/12/29 03:49:13;;;;;;;8.73;2.33;;;18.30;53.20;;;;;;5094827;28;20267;-62
2023/12/29 03:51:40;;;;;;;8.73;2.53;;;18.30;53.20;;;;;;5093907;28;20301;-62
2023/12/29 03:54:06;;;;;;;8.02;2.10;;;18.30;53.30;;;;;;5094300;28;20757;-62
2023/12/29 03:56:33;;;;;;;7.80;1.65;;;18.30;53.20;;;;;;5094825;28;20305;-62
2023/12/29 03:59:00;;;;;;;9.93;2.20;;;18.30;53.30;;;;;;5093947;28;20751;-62
2023/12/29 04:01:27;;;;;;;13.07;2.53;;;18.30;53.30;;;;;;5094529;28;20309;-60
2023/12/29 04:03:54;;;;;;;10.00;2.22;;;18.30;53.40;;;;;;5094548;28;20277;-62
2023/12/29 04:06:23;;;;;;;9.73;2.60;;;18.20;53.30;;;;;;5094233;28;20218;-61
2023/12/29 04:08:49;;;;;;;10.05;2.05;;;18.30;53.50;;;;;;5094056;28;20662;-62
2023/12/29 04:11:16;;;;;;;6.13;1.63;;;18.30;53.40;;;;;;5094581;28;20304;-62
2023/12/29 04:13:43;;;;;;;9.30;2.17;;;18.20;53.40;;;;;;5094006;28;20224;-62
2023/12/29 04:16:10;;;;;;;8.15;2.42;;;18.30;53.40;;;;;;5094340;28;20220;-62
2023/12/29 04:18:37;;;;;;;8.77;2.30;;;18.30;53.50;;;;;;5094237;28;20359;-62
2023/12/29 04:21:04;;;;;;;10.85;2.22;;;18.20;53.40;;;;;;5093852;28;20300;-62
2023/12/29 04:23:31;;;;;;;7.85;1.90;;;18.20;53.40;;;;;;5094068;28;20240;-61
2023/12/29 04:25:58;;;;;;;8.52;2.28;;;18.30;53.50;;;;;;5092991;28;20711;-62
2023/12/29 04:28:25;;;;;;;7.43;1.90;;;18.20;53.50;;;;;;5093126;28;20660;-62
2023/12/29 04:30:52;;;;;;;10.52;2.20;;;18.20;53.50;;;;;;5093938;28;20306;-62
2023/12/29 04:33:19;;;;;;;9.25;2.47;;;18.20;53.50;;;;;;5093654;28;20692;-61
2023/12/29 04:35:46;;;;;;;10.50;2.05;;;18.20;53.50;;;;;;5093458;28;20304;-61
2023/12/29 04:38:13;;;;;;;8.68;2.28;;;18.20;53.60;;;;;;5093747;28;20265;-62
2023/12/29 04:40:41;;;;;;;12.77;2.45;;;18.20;53.60;;;;;;5093309;28;20214;-62
2023/12/29 04:43:08;;;;;;;11.45;2.47;;;18.20;53.60;;;;;;5093400;28;20308;-62
2023/12/29 04:45:35;;;;;;;11.43;2.63;;;18.20;53.60;;;;;;5093388;28;20218;-62
2023/12/29 04:48:02;;;;;;;10.82;2.78;;;18.20;53.60;;;;;;5093187;28;20314;-62
2023/12/29 04:50:28;;;;;;;9.13;2.47;;;18.20;53.60;;;;;;5090678;28;20218;-62
2023/12/29 04:52:55;;;;;;;10.70;2.55;;;18.20;53.70;;;;;;5093337;28;20280;-62
2023/12/29 04:55:22;;;;;;;10.05;2.17;;;18.20;53.70;;;;;;5093101;28;20308;-63
2023/12/29 04:57:50;;;;;;;8.38;2.25;;;18.20;53.70;;;;;;5092889;28;20662;-62
2023/12/29 05:00:18;;;;;;;7.70;2.20;;;18.20;53.70;;;;;;5093324;28;20428;-63
2023/12/29 05:02:44;;;;;;;9.20;2.45;;;18.20;53.70;;;;;;5093339;28;20274;-62
2023/12/29 05:05:11;;;;;;;9.82;2.10;;;18.20;53.90;;;;;;5093002;28;20272;-62
2023/12/29 05:07:38;;;;;;;10.82;2.58;;;18.20;53.80;;;;;;5093318;28;20217;-62
2023/12/29 05:10:06;;;;;;;9.35;2.47;;;18.20;53.70;;;;;;5092794;28;20186;-62
2023/12/29 05:12:33;;;;;;;11.32;2.53;;;18.20;53.80;;;;;;5092593;28;20727;-62
2023/12/29 05:15:01;;;;;;;10.35;2.88;;;18.20;53.80;;;;;;5092756;28;20213;-62
2023/12/29 05:17:28;;;;;;;10.55;3.05;;;18.20;53.80;;;;;;5093167;28;20230;-62
2023/12/29 05:19:55;;;;;;;9.25;2.65;;;18.10;53.70;;;;;;5092650;28;20193;-62
2023/12/29 05:22:21;;;;;;;10.15;2.30;;;18.20;53.90;;;;;;5093238;28;20301;-61
2023/12/29 05:24:48;;;;;;;9.00;2.13;;;18.20;53.90;;;;;;5092927;28;20285;-62
2023/12/29 05:27:15;;;;;;;11.35;3.08;;;18.20;53.90;;;;;;5092577;28;20296;-62
2023/12/29 05:29:42;;;;;;;8.07;2.03;;;18.20;53.90;;;;;;5092510;28;20273;-62
2023/12/29 05:32:11;;;;;;;9.00;2.40;;;18.20;53.90;;;;;;5092977;28;20306;-62
2023/12/29 05:34:38;;;;;;;8.60;2.30;;;18.20;54.00;;;;;;5092541;28;20229;-62
2023/12/29 05:37:04;;;;;;;10.15;2.42;;;18.20;54.00;;;;;;5092728;28;20304;-62
2023/12/29 05:39:31;;;;;;;8.23;2.13;;;18.20;54.00;;;;;;5092586;28;20194;-62
2023/12/29 05:41:58;;;;;;;6.82;2.35;;;18.20;53.90;;;;;;5092271;28;20214;-62
2023/12/29 05:44:25;;;;;;;9.82;2.25;;;18.20;53.70;;;;;;5092752;28;20243;-62
2023/12/29 05:46:54;;;;;;;8.23;1.85;;;18.30;53.80;;;;;;5092456;28;20232;-62
2023/12/29 05:49:25;;;;;;;5.35;1.83;;;18.40;53.70;;;;;;5092261;28;20235;-62
2023/12/29 05:51:52;;;;;;;5.53;1.90;;;18.50;53.70;;;;;;5092227;28;20210;-62
2023/12/29 05:54:19;;;;;;;6.68;2.20;;;18.60;53.60;;;;;;5092536;28;20217;-62
2023/12/29 05:56:46;;;;;;;7.90;2.03;;;18.70;53.40;;;;;;5092279;28;20649;-61
2023/12/29 05:59:13;;;;;;;6.60;2.00;;;18.90;53.30;;;;;;5092049;28;20190;-62
2023/12/29 06:01:40;;;;;;;6.55;1.70;;;18.90;53.10;;;;;;5092228;28;20217;-62
2023/12/29 06:04:07;;;;;;;5.22;1.88;;;19.00;53.10;;;;;;5092089;28;20217;-62
2023/12/29 06:06:35;;;;;;;8.07;2.38;;;19.00;53.00;;;;;;5092504;28;20287;-62
2023/12/29 06:09:02;;;;;;;6.93;2.03;;;19.10;52.90;;;;;;5092377;28;20182;-62
2023/12/29 06:11:29;;;;;;;7.03;1.92;;;19.10;52.80;;;;;;5092102;28;20220;-62
2023/12/29 06:13:56;;;;;;;10.40;2.40;;;19.10;52.80;;;;;;5092267;28;20214;-62
2023/12/29 06:16:24;;;;;;;7.05;1.73;;;19.10;52.80;;;;;;5092383;28;20214;-62
2023/12/29 06:18:51;;;;;;;6.30;2.00;;;19.10;52.80;;;;;;5091949;28;20209;-62
2023/12/29 06:21:19;;;;;;;9.90;2.00;;;19.10;52.80;;;;;;5092410;28;20222;-62
2023/12/29 06:23:47;;;;;;;7.72;2.20;;;19.00;52.70;;;;;;5092296;28;20568;-62
2023/12/29 06:26:17;;;;;;;5.80;2.30;;;19.00;52.70;;;;;;5092240;28;20213;-62
2023/12/29 06:28:45;;;;;;;5.80;1.77;;;19.00;52.80;;;;;;5092070;28;20197;-62
2023/12/29 06:31:12;;;;;;;10.70;2.38;;;19.00;52.80;;;;;;5091957;28;20268;-62
2023/12/29 06:33:41;;;;;;;7.13;1.90;;;19.00;52.80;;;;;;5091521;28;20656;-62
2023/12/29 06:36:09;;;;;;;7.32;1.90;;;18.90;52.70;;;;;;5092024;28;20218;-62
2023/12/29 06:38:36;;;;;;;6.22;1.67;;;18.90;52.80;;;;;;5091749;28;20223;-62
2023/12/29 06:41:05;;;;;;;5.95;1.88;;;18.90;52.80;;;;;;5091335;28;20241;-62
2023/12/29 06:43:33;;;;;;;7.38;1.85;;;18.80;52.80;;;;;;5091778;28;20682;-62
2023/12/29 06:46:00;;;;;;;6.35;1.88;;;18.80;52.80;;;;;;5092013;28;20213;-62
2023/12/29 06:48:27;;;;;;;8.00;1.98;;;18.80;52.80;;;;;;5091184;28;20238;-62
2023/12/29 06:50:54;;;;;;;9.63;1.95;;;18.80;52.90;;;;;;5094814;28;20354;-62
2023/12/29 06:53:21;;;;;;;7.53;2.00;;;18.80;53.00;;;;;;5095857;28;20256;-61
2023/12/29 06:55:48;;;;;;;6.38;2.20;;;18.70;53.00;;;;;;5095105;28;20279;-62
2023/12/29 06:58:16;;;;;;;10.63;2.03;;;18.70;53.00;;;;;;5095687;28;20205;-62
2023/12/29 07:00:43;;;;;;;7.30;2.13;;;18.70;53.10;;;;;;5095733;28;20290;-61
2023/12/29 07:03:13;;;;;;;6.28;1.77;;;18.60;53.00;;;;;;5095206;28;20221;-62
2023/12/29 07:05:40;;;;;;;8.10;1.90;;;18.60;53.10;;;;;;5095259;28;20270;-62
2023/12/29 07:08:07;;;;;;;8.13;2.45;;;18.60;53.10;;;;;;5095547;28;20231;-62
2023/12/29 07:10:34;;;;;;;9.15;2.08;;;18.60;53.30;;;;;;5094957;28;20601;-62
2023/12/29 07:13:01;;;;;;;7.75;2.30;;;18.60;53.30;;;;;;5095446;28;20243;-61
2023/12/29 07:15:29;;;;;;;10.32;2.67;;;18.50;53.30;;;;;;5095424;28;20625;-62
2023/12/29 07:17:56;;;;;;;8.45;1.95;;;18.50;53.30;;;;;;5095103;28;20187;-62
2023/12/29 07:20:25;;;;;;;10.07;2.40;;;18.50;53.40;;;;;;5095258;28;20193;-62
2023/12/29 07:22:52;;;;;;;10.88;2.55;;;18.50;53.50;;;;;;5095375;28;20198;-62
2023/12/29 07:25:19;;;;;;;7.25;2.20;;;18.50;53.60;;;;;;5094667;28;20717;-61
2023/12/29 07:27:46;;;;;;;7.65;2.10;;;18.50;53.60;;;;;;5095476;28;20186;-62
2023/12/29 07:30:14;;;;;;;9.35;2.10;;;18.50;53.60;;;;;;5094899;28;20190;-62
2023/12/29 07:32:43;;;;;;;13.65;2.50;;;18.40;53.60;;;;;;5094849;28;20217;-62
2023/12/29 07:35:10;;;;;;;11.40;2.50;;;18.40;53.70;;;;;;5094502;28;20267;-62
2023/12/29 07:37:37;;;;;;;8.75;2.10;;;18.40;53.70;;;;;;5095112;28;20214;-62
2023/12/29 07:40:05;;;;;;;8.85;2.10;;;18.40;53.80;;;;;;5094321;28;20709;-62
2023/12/29 07:42:32;;;;;;;7.78;2.30;;;18.30;53.70;;;;;;5095004;28;20222;-62
2023/12/29 07:44:59;;;;;;;8.45;1.98;;;18.40;53.90;;;;;;5094956;28;20269;-62
2023/12/29 07:47:27;;;;;;;7.20;2.00;;;18.40;53.90;;;;;;5094109;28;20716;-62
2023/12/29 07:49:55;;;;;;;9.32;2.28;;;18.30;53.80;;;;;;5095058;28;20224;-62
2023/12/29 07:52:22;;;;;;;8.15;2.13;;;18.40;54.00;;;;;;5094326;28;20214;-62
2023/12/29 07:54:49;;;;;;;8.57;2.38;;;18.30;54.00;;;;;;5094231;28;20233;-62
2023/12/29 07:57:16;;;;;;;7.22;2.00;;;18.30;54.10;;;;;;5094712;28;20221;-61
2023/12/29 07:59:43;;;;;;;6.30;2.08;;;18.30;54.10;;;;;;5094217;28;20281;-61
2023/12/29 08:02:10;;;;;;;5.47;1.77;;;18.30;54.10;;;;;;5094063;28;20300;-62
2023/12/29 08:04:38;;;;;;;6.30;1.70;;;18.30;54.10;;;;;;5094386;28;20273;-62
2023/12/29 08:07:06;;;;;;;9.98;2.20;;;18.30;54.20;;;;;;5094385;28;20287;-62
2023/12/29 08:09:33;;;;;;;7.20;1.90;;;18.30;54.20;;;;;;5094106;28;20218;-62
2023/12/29 08:12:00;;;;;;;6.53;2.15;;;18.30;54.20;;;;;;5094059;28;20599;-62
2023/12/29 08:14:28;;;;;;;7.03;1.80;;;18.20;54.10;;;;;;5093996;28;20571;-62
2023/12/29 08:16:56;;;;;;;8.73;2.30;;;18.30;54.20;;;;;;5093944;28;20214;-62
2023/12/29 08:19:23;;;;;;;6.05;1.85;;;18.30;54.10;;;;;;5093951;28;20284;-62
2023/12/29 08:21:51;;;;;;;5.18;1.80;;;18.30;54.10;;;;;;5094392;28;20221;-61
2023/12/29 08:24:20;;;;;;;4.53;1.80;;;18.40;54.10;;;;;;5093476;28;20194;-62
2023/12/29 08:26:48;;;;;;;5.28;1.65;;;18.50;54.00;;;;;;5093865;28;20716;-62
2023/12/29 08:29:15;;;;;;;7.38;1.67;;;18.60;53.90;;;;;;5093996;28;20221;-62
2023/12/29 08:31:43;;;;;;;6.05;1.65;;;18.70;53.80;;;;;;5093573;28;20707;-62
2023/12/29 08:34:10;;;;;;;3.83;1.55;;;18.80;53.70;;;;;;5093957;28;20265;-61
2023/12/29 08:36:37;;;;;;;7.50;1.83;;;19.00;53.60;;;;;;5093714;28;20300;-61
2023/12/29 08:39:04;;;;;;;7.15;1.40;;;19.10;53.50;;;;;;5093116;28;20276;-62
2023/12/29 08:41:32;;;;;;;5.78;1.70;;;19.20;53.30;;;;;;5093457;28;20300;-62
2023/12/29 08:43:59;;;;;;;4.65;1.50;;;19.40;53.10;;;;;;5093788;28;20280;-62
2023/12/29 08:46:26;;;;;;;5.57;1.83;;;19.50;52.90;;;;;;5093174;28;20313;-62
2023/12/29 08:48:54;;;;;;;4.18;1.48;;;19.60;52.70;;;;;;5093745;28;20289;-62
2023/12/29 08:51:21;;;;;;;3.33;1.48;;;19.80;52.60;;;;;;5093511;28;20232;-62
2023/12/29 08:53:48;;;;;;;5.35;1.80;;;19.90;52.40;;;;;;5093236;28;20269;-62
2023/12/29 08:56:15;;;;;;;3.95;1.30;;;19.90;52.20;;;;;;5093605;28;20355;-62
2023/12/29 08:58:43;;;;;;;4.22;1.50;;;20.00;52.10;;;;;;5093066;28;20641;-62
2023/12/29 09:01:10;;;;;;;6.03;1.77;;;20.00;52.00;;;;;;5093146;28;20313;-62
2023/12/29 09:03:36;;;;;;;9.02;1.98;;;20.00;51.90;;;;;;5093129;28;20278;-62
2023/12/29 09:06:03;;;;;;;6.55;1.65;;;20.00;51.90;;;;;;5093291;28;20214;-62
2023/12/29 09:08:30;;;;;;;4.95;1.65;;;20.00;51.90;;;;;;5092964;28;20194;-61
2023/12/29 09:10:57;;;;;;;5.63;1.50;;;19.90;51.80;;;;;;5093189;28;20210;-62
2023/12/29 09:13:26;;;;;;;4.82;1.80;;;19.80;51.80;;;;;;5092230;28;20642;-62
2023/12/29 09:15:55;;;;;;;5.35;1.73;;;19.80;51.90;;;;;;5092574;28;20234;-62
2023/12/29 09:18:22;;;;;;;6.80;1.98;;;19.80;52.00;;;;;;5092982;28;20192;-61
2023/12/29 09:20:48;;;;;;;5.13;1.35;;;19.70;52.00;;;;;;5093116;28;20304;-62
2023/12/29 09:23:15;;;;;;;6.28;1.63;;;19.70;52.10;;;;;;5092698;28;20623;-62
2023/12/29 09:25:42;;;;;;;9.32;1.98;;;19.60;52.10;;;;;;5093017;28;20272;-62
2023/12/29 09:28:09;;;;;;;7.50;1.77;;;19.60;52.10;;;;;;5092847;28;20273;-62
2023/12/29 09:30:36;;;;;;;5.35;1.52;;;19.50;52.20;;;;;;5092485;28;20367;-62
2023/12/29 09:33:05;;;;;;;3.95;1.58;;;19.50;52.30;;;;;;5092868;28;20190;-62
2023/12/29 09:35:32;;;;;;;9.95;2.28;;;19.40;52.30;;;;;;5092654;28;20224;-62
2023/12/29 09:37:59;;;;;;;5.10;1.80;;;19.40;53.10;;;;;;5092401;28;20186;-63
2023/12/29 09:40:26;;;;;;;7.35;1.77;;;19.40;52.50;;;;;;5092698;28;20217;-62
2023/12/29 09:42:53;;;;;;;7.03;1.80;;;19.30;52.50;;;;;;5092235;28;20638;-61
2023/12/29 09:45:25;;;;;;;6.07;1.75;;;19.30;52.60;;;;;;5092316;28;20292;-61
2023/12/29 09:47:53;;;;;;;5.28;1.48;;;19.30;52.70;;;;;;5092328;28;20241;-62
2023/12/29 09:50:22;;;;;;;5.63;1.95;;;19.20;52.60;;;;;;5092260;28;20201;-62
2023/12/29 09:52:50;;;;;;;5.40;1.48;;;19.20;52.70;;;;;;5092033;28;20763;-62
2023/12/29 09:55:17;;;;;;;6.38;1.60;;;19.10;52.70;;;;;;5092240;28;20587;-62
2023/12/29 09:57:44;;;;;;;8.40;2.35;;;19.10;52.80;;;;;;5092454;28;20218;-62
2023/12/29 10:00:12;;;;;;;5.90;2.00;;;19.10;52.90;;;;;;5091780;28;20687;-62
2023/12/29 10:02:39;;;;;;;6.25;1.70;;;19.00;52.90;;;;;;5092228;28;20659;-62
2023/12/29 10:05:08;;;;;;;9.90;2.00;;;19.00;53.00;;;;;;5092403;28;20213;-62
2023/12/29 10:07:38;;;;;;;11.88;1.90;;;19.00;53.10;;;;;;5092183;28;20218;-62
2023/12/29 10:10:07;;;;;;;6.25;2.00;;;18.90;53.10;;;;;;5092290;28;20273;-62
2023/12/29 10:12:36;;;;;;;9.82;2.33;;;18.90;53.10;;;;;;5092462;28;20214;-62
2023/12/29 10:15:10;;;;;;;7.50;1.90;;;18.90;53.20;;;;;;5091778;28;20194;-62
2023/12/29 10:17:49;;;;;;;7.68;1.80;;;18.80;53.80;;;;;;5092074;28;20604;-62
2023/12/29 10:20:31;;;;;;;8.90;2.45;;;18.80;53.30;;;;;;5092255;28;20182;-62
2023/12/29 10:23:08;;;;;;;9.10;1.83;;;18.80;53.30;;;;;;5091943;28;20197;-62
2023/12/29 10:25:35;;;;;;;6.82;2.05;;;18.70;53.30;;;;;;5096254;28;20289;-62
2023/12/29 10:28:03;;;;;;;8.82;1.70;;;18.70;53.30;;;;;;5096045;28;20193;-62
2023/12/29 10:30:31;;;;;;;9.77;2.20;;;18.70;53.40;;;;;;5096010;28;20190;-61
2023/12/29 10:33:00;;;;;;;9.60;2.15;;;18.70;53.50;;;;;;5096397;28;20186;-62
2023/12/29 10:35:27;;;;;;;10.40;2.05;;;18.60;53.40;;;;;;5095810;28;20214;-62
2023/12/29 10:37:54;;;;;;;9.88;2.22;;;18.60;53.50;;;;;;5096184;28;20309;-62
2023/12/29 10:40:22;;;;;;;8.80;2.55;;;18.60;53.60;;;;;;5096138;28;20277;-62
2023/12/29 10:42:57;;;;;;;9.30;2.60;;;18.60;53.70;;;;;;5095793;28;20762;-62
2023/12/29 10:45:25;;;;;;;11.18;2.53;;;18.60;53.80;;;;;;5095430;28;20190;-62
2023/12/29 10:47:52;;;;;;;9.82;2.10;;;18.60;53.80;;;;;;5095606;28;20233;-62
2023/12/29 10:50:19;;;;;;;7.53;1.75;;;18.50;54.40;;;;;;5096043;28;20297;-62
2023/12/29 10:52:46;;;;;;;10.43;2.90;;;18.50;53.80;;;;;;5095210;28;20596;-62
2023/12/29 10:55:13;;;;;;;7.47;2.10;;;18.50;53.80;;;;;;5095456;28;20609;-61
2023/12/29 10:57:42;;;;;;;10.10;2.42;;;18.50;53.80;;;;;;5095630;28;20219;-61
2023/12/29 11:00:12;;;;;;;6.10;1.83;;;18.50;53.90;;;;;;5095770;28;20194;-62
2023/12/29 11:02:39;;;;;;;6.40;1.90;;;18.60;53.90;;;;;;5095720;28;20254;-61
2023/12/29 11:05:07;;;;;;;8.80;2.50;;;18.60;53.90;;;;;;5095645;28;20247;-62
2023/12/29 11:07:36;;;;;;;7.90;1.67;;;18.70;53.90;;;;;;5095443;28;20296;-62
2023/12/29 11:10:04;;;;;;;8.48;2.05;;;18.80;53.80;;;;;;5095204;28;20631;-62
2023/12/29 11:12:34;;;;;;;9.65;2.33;;;19.00;53.70;;;;;;5095564;28;20252;-62
2023/12/29 11:15:03;;;;;;;7.53;1.90;;;19.10;53.60;;;;;;5095158;28;20186;-62
2023/12/29 11:17:32;;;;;;;5.80;2.08;;;19.20;53.40;;;;;;5095043;28;20229;-62
2023/12/29 11:20:00;;;;;;;9.05;2.20;;;19.30;53.30;;;;;;5095288;28;20193;-62
2023/12/29 11:22:30;;;;;;;6.35;1.77;;;19.50;53.10;;;;;;5095179;28;20214;-62
2023/12/29 11:24:59;;;;;;;6.18;2.50;;;19.60;52.90;;;;;;5095393;28;20186;-62
2023/12/29 11:27:28;;;;;;;8.00;1.80;;;19.80;52.70;;;;;;5094934;28;20222;-62
2023/12/29 11:29:56;;;;;;;7.47;1.92;;;19.90;52.50;;;;;;5095076;28;20190;-62
2023/12/29 11:32:32;;;;;;;7.90;2.00;;;20.00;52.40;;;;;;5095327;28;20309;-62
2023/12/29 11:35:17;;;;;;;7.22;2.10;;;20.20;52.20;;;;;;5094855;28;20277;-62
2023/12/29 11:38:01;;;;;;;7.63;1.90;;;20.30;52.00;;;;;;5094921;28;20325;-62
2023/12/29 11:40:33;;;;;;;7.13;2.35;;;20.40;52.40;;;;;;5094989;28;20269;-62
2023/12/29 11:43:06;;;;;;;7.00;2.05;;;20.50;51.60;;;;;;5095026;28;20210;-62
2023/12/29 11:45:35;;;;;;;8.63;2.25;;;20.60;51.40;;;;;;5094637;28;20202;-62
2023/12/29 11:48:04;;;;;;;9.48;2.10;;;20.70;51.50;;;;;;5094732;28;20265;-62
2023/12/29 11:50:32;;;;;;;8.73;2.15;;;20.80;51.30;;;;;;5094624;28;20652;-62
2023/12/29 11:53:00;;;;;;;9.40;2.60;;;20.90;51.20;;;;;;5094390;28;20241;-62
2023/12/29 11:55:31;;;;;;;10.18;2.45;;;20.90;50.90;;;;;;5094646;28;20186;-62
2023/12/29 11:57:59;;;;;;;7.25;2.08;;;21.00;50.90;;;;;;5094595;28;20220;-62
2023/12/29 12:00:46;;;;;;;8.82;2.58;;;20.90;50.80;;;;;;5094073;28;20192;-62
2023/12/29 12:03:20;;;;;;;10.18;2.63;;;20.90;50.80;;;;;;5094622;28;20612;-62
2023/12/29 12:05:48;;;;;;;9.23;2.30;;;20.80;50.80;;;;;;5094261;28;20190;-62
2023/12/29 12:08:39;;;;;;;10.80;2.70;;;20.80;50.80;;;;;;5094049;28;20557;-62
2023/12/29 12:11:43;;;;;;;9.07;2.28;;;20.70;50.80;;;;;;5090624;28;20213;-62
2023/12/29 12:14:10;;;;;;;12.13;2.58;;;20.70;51.00;;;;;;5093719;28;20662;-62
2023/12/29 12:16:50;;;;;;;9.55;2.63;;;20.60;51.00;;;;;;5093852;28;20767;-62
2023/12/29 12:19:20;;;;;;;10.80;2.50;;;20.50;51.00;;;;;;5094227;28;20208;-62
2023/12/29 12:21:48;;;;;;;8.23;2.60;;;20.50;51.30;;;;;;5093649;28;20257;-62
2023/12/29 12:24:16;;;;;;;13.68;2.40;;;20.40;51.20;;;;;;5094129;28;20194;-62
2023/12/29 12:26:43;;;;;;;10.43;3.00;;;20.40;51.20;;;;;;5093910;28;20241;-62
2023/12/29 12:29:12;;;;;;;10.10;2.70;;;20.30;51.10;;;;;;5093654;28;20190;-62
2023/12/29 12:31:52;;;;;;;10.75;2.70;;;20.40;51.30;;;;;;5093999;28;20246;-61
2023/12/29 12:34:20;;;;;;;10.10;2.65;;;20.40;51.30;;;;;;5093967;28;20280;-62
2023/12/29 12:36:50;;;;;;;8.32;2.42;;;20.50;51.30;;;;;;5093197;28;20225;-62
2023/12/29 12:39:17;;;;;;;7.53;2.17;;;20.50;51.30;;;;;;5093616;28;20193;-61
2023/12/29 12:41:44;;;;;;;7.97;2.20;;;20.60;51.40;;;;;;5093767;28;20308;-62
2023/12/29 12:44:12;;;;;;;8.82;2.75;;;20.70;51.20;;;;;;5093230;28;20186;-62
2023/12/29 12:46:42;;;;;;;7.60;1.95;;;20.80;51.00;;;;;;5093159;28;20317;-62
2023/12/29 12:49:09;;;;;;;9.63;2.45;;;20.90;50.90;;;;;;5093476;28;20233;-62